KJAS/JAS METAR and TAF weather

Enter ICAO airport designator
Station Type Date Time Source
KJAS METAR 2021/09/20 04:15 UTC NOAA

KJAS 200415Z AUTO 00000KT 10SM 23/23 A2990 RMK AO2


Station Type Date Time Source
KJAS Decoded METAR 2021/09/20 04:15 UTC NOAA

Jasper, Jasper County-Bell Field Airport, TX, United States (KJAS) 30-53-08N 094-02-05W
Sep 20, 2021 - 12:15 AM EDT / 2021.09.20 0415 UTC
Wind: Calm:0
Visibility: 10 mile(s):0
Temperature: 73 F (23 C)
Dew Point: 73 F (23 C)
Relative Humidity: 100%
Pressure (altimeter): 29.9 in. Hg (1012 hPa)
ob: KJAS 200415Z AUTO 00000KT 10SM 23/23 A2990 RMK AO2
cycle: 4

Station Type Date Time Source
KJAS TAF UTC NOAA

Error!

Example: see airport list